Time;durP1;ratioP1;P1;durP2;ratioP2;P2;SDS_P1;SDS_P2;PMS_P1;PMS_P2;Temp;Humidity;BMP_temperature;BMP_pressure;BME280_temperature;BME280_humidity;BME280_pressure;Samples;Min_cycle;Max_cycle;Signal;HPM_P1;HPM_P2
2023/04/09 00:00:27;;;;;;;28.23;18.38;;;;;;;;;;4808893;29;20050;-81
2023/04/09 00:03:12;;;;;;;29.58;17.33;;;;;;;;;;4801429;29;20046;-81
2023/04/09 00:05:57;;;;;;;29.05;18.05;;;;;;;;;;4808957;29;20405;-81
2023/04/09 00:08:42;;;;;;;26.27;17.65;;;;;;;;;;4808984;29;20042;-82
2023/04/09 00:11:28;;;;;;;41.63;21.23;;;;;;;;;;4801065;29;20058;-81
2023/04/09 00:14:12;;;;;;;33.88;20.75;;;;;;;;;;4809490;29;20050;-80
2023/04/09 00:16:57;;;;;;;33.22;19.58;;;;;;;;;;4808715;29;20055;-80
2023/04/09 00:19:43;;;;;;;41.63;23.23;;;;;;;;;;4808694;29;20477;-81
2023/04/09 00:22:29;;;;;;;29.05;18.10;;;;;;;;;;4808564;29;20535;-80
2023/04/09 00:25:15;;;;;;;28.00;17.00;;;;;;;;;;4808655;29;20046;-81
2023/04/09 00:28:01;;;;;;;24.90;16.08;;;;;;;;;;4809017;29;20059;-81
2023/04/09 00:30:46;;;;;;;24.88;15.48;;;;;;;;;;4808545;29;20063;-81
2023/04/09 00:33:32;;;;;;;28.45;17.42;;;;;;;;;;4808410;29;20416;-79
2023/04/09 00:36:17;;;;;;;34.63;22.00;;;;;;;;;;4800506;29;20055;-81
2023/04/09 00:39:03;;;;;;;32.85;20.80;;;;;;;;;;4800657;29;20054;-81
2023/04/09 00:41:49;;;;;;;28.85;17.15;;;;;;;;;;4800948;29;20062;-82
2023/04/09 00:44:34;;;;;;;29.60;17.63;;;;;;;;;;4807991;29;20051;-80
2023/04/09 00:47:20;;;;;;;30.52;17.52;;;;;;;;;;4800773;29;20047;-81
2023/04/09 00:50:07;;;;;;;24.92;17.80;;;;;;;;;;4800614;29;20051;-82
2023/04/09 00:52:55;;;;;;;29.60;18.65;;;;;;;;;;4800434;29;20046;-80
2023/04/09 00:55:40;;;;;;;24.90;16.17;;;;;;;;;;4808516;29;20051;-80
2023/04/09 00:58:26;;;;;;;28.98;16.77;;;;;;;;;;4807986;29;20050;-81
2023/04/09 01:01:11;;;;;;;26.00;16.13;;;;;;;;;;4808037;29;20051;-80
2023/04/09 01:03:56;;;;;;;27.85;16.48;;;;;;;;;;4800495;29;20055;-81
2023/04/09 01:06:50;;;;;;;30.15;18.05;;;;;;;;;;4808050;29;20046;-82
2023/04/09 01:09:51;;;;;;;32.83;20.75;;;;;;;;;;4807933;29;20054;-81
2023/04/09 01:12:55;;;;;;;28.70;18.08;;;;;;;;;;4800190;29;20050;-81
2023/04/09 01:15:49;;;;;;;28.90;17.27;;;;;;;;;;4807827;29;20054;-79
2023/04/09 01:18:41;;;;;;;29.40;17.27;;;;;;;;;;4800213;29;20042;-81
2023/04/09 01:21:33;;;;;;;23.58;15.48;;;;;;;;;;4808179;29;20489;-80
2023/04/09 01:24:28;;;;;;;26.75;15.20;;;;;;;;;;4807778;29;20058;-79
2023/04/09 01:27:14;;;;;;;26.58;16.00;;;;;;;;;;4807709;29;20050;-80
2023/04/09 01:30:10;;;;;;;23.08;14.95;;;;;;;;;;4796940;29;20090;-78
2023/04/09 01:32:57;;;;;;;21.90;15.48;;;;;;;;;;4807436;29;20062;-80
2023/04/09 01:35:44;;;;;;;33.47;19.45;;;;;;;;;;4807446;29;20493;-80
2023/04/09 01:38:30;;;;;;;34.20;18.80;;;;;;;;;;4807474;29;20047;-79
2023/04/09 01:41:20;;;;;;;27.40;16.17;;;;;;;;;;4799979;29;20055;-80
2023/04/09 01:44:07;;;;;;;27.75;16.48;;;;;;;;;;4807316;29;20054;-80
2023/04/09 01:46:54;;;;;;;24.23;15.10;;;;;;;;;;4787059;29;20489;-79
2023/04/09 01:49:40;;;;;;;22.55;15.35;;;;;;;;;;4787038;29;20058;-80
2023/04/09 01:52:26;;;;;;;25.13;15.73;;;;;;;;;;4799291;29;20043;-79
2023/04/09 01:55:11;;;;;;;32.17;19.60;;;;;;;;;;4799722;29;20046;-80
2023/04/09 01:57:57;;;;;;;40.72;21.55;;;;;;;;;;4807027;29;20050;-79
2023/04/09 02:00:47;;;;;;;48.35;25.63;;;;;;;;;;4799388;29;20058;-79
2023/04/09 02:03:36;;;;;;;70.72;36.10;;;;;;;;;;4799602;29;20412;-80
2023/04/09 02:06:47;;;;;;;49.75;26.25;;;;;;;;;;4807100;29;20062;-80
2023/04/09 02:09:36;;;;;;;45.60;26.55;;;;;;;;;;4793722;29;20058;-80
2023/04/09 02:12:23;;;;;;;50.22;28.42;;;;;;;;;;4806603;29;20051;-80
2023/04/09 02:15:09;;;;;;;58.13;30.50;;;;;;;;;;4798908;29;20050;-80
2023/04/09 02:17:55;;;;;;;86.13;40.22;;;;;;;;;;4806633;29;20050;-80
2023/04/09 02:20:41;;;;;;;46.25;25.90;;;;;;;;;;4786720;29;20489;-79
2023/04/09 02:23:26;;;;;;;52.97;28.52;;;;;;;;;;4787043;29;20054;-79
2023/04/09 02:26:12;;;;;;;46.13;24.65;;;;;;;;;;4806721;29;20054;-79
2023/04/09 02:28:57;;;;;;;49.60;26.25;;;;;;;;;;4798803;29;20046;-79
2023/04/09 02:31:44;;;;;;;32.25;20.70;;;;;;;;;;4806459;29;20054;-79
2023/04/09 02:34:30;;;;;;;26.40;17.20;;;;;;;;;;4806997;29;20484;-79
2023/04/09 02:37:15;;;;;;;36.80;17.63;;;;;;;;;;4806671;29;20408;-79
2023/04/09 02:40:01;;;;;;;27.20;17.00;;;;;;;;;;4806399;29;20405;-80
2023/04/09 02:42:46;;;;;;;32.00;18.48;;;;;;;;;;4806462;29;20054;-80
2023/04/09 02:45:32;;;;;;;26.45;16.67;;;;;;;;;;4806478;29;20046;-81
2023/04/09 02:48:17;;;;;;;26.40;17.60;;;;;;;;;;4806547;29;20059;-80
2023/04/09 02:51:07;;;;;;;30.55;17.38;;;;;;;;;;4798583;29;20058;-80
2023/04/09 02:53:51;;;;;;;33.85;20.35;;;;;;;;;;4798859;29;20047;-79
2023/04/09 02:56:37;;;;;;;37.92;20.73;;;;;;;;;;4798950;29;20055;-80
2023/04/09 02:59:22;;;;;;;34.75;20.55;;;;;;;;;;4799008;29;20050;-81
2023/04/09 03:02:08;;;;;;;36.70;22.05;;;;;;;;;;4798670;29;20424;-78
2023/04/09 03:04:53;;;;;;;41.67;22.30;;;;;;;;;;4798524;29;20059;-80
2023/04/09 03:07:38;;;;;;;32.38;22.30;;;;;;;;;;4806348;29;20054;-79
2023/04/09 03:10:23;;;;;;;35.00;21.23;;;;;;;;;;4806092;29;20054;-79
2023/04/09 03:13:08;;;;;;;29.25;18.30;;;;;;;;;;4799004;29;20058;-79
2023/04/09 03:15:53;;;;;;;26.98;16.35;;;;;;;;;;4801368;29;20501;-80
2023/04/09 03:18:38;;;;;;;27.45;16.27;;;;;;;;;;4801919;29;20051;-80
2023/04/09 03:21:23;;;;;;;34.80;18.70;;;;;;;;;;4802281;29;20055;-80
2023/04/09 03:24:10;;;;;;;35.80;19.52;;;;;;;;;;4809325;29;20413;-79
2023/04/09 03:26:56;;;;;;;31.42;19.23;;;;;;;;;;4802674;29;20047;-79
2023/04/09 03:29:41;;;;;;;34.60;19.80;;;;;;;;;;4800570;29;20396;-79
2023/04/09 03:32:26;;;;;;;36.33;20.23;;;;;;;;;;4801444;29;20055;-80
2023/04/09 03:35:11;;;;;;;35.70;19.98;;;;;;;;;;4809626;29;20054;-80
2023/04/09 03:37:59;;;;;;;34.03;20.13;;;;;;;;;;4801562;29;20125;-79
2023/04/09 03:40:44;;;;;;;32.35;19.55;;;;;;;;;;4796043;29;20059;-79
2023/04/09 03:43:29;;;;;;;29.77;18.30;;;;;;;;;;4801826;29;20054;-79
2023/04/09 03:46:16;;;;;;;28.52;18.30;;;;;;;;;;4801449;29;20051;-80
2023/04/09 03:49:04;;;;;;;30.95;19.13;;;;;;;;;;4801661;29;20051;-80
2023/04/09 03:51:58;;;;;;;36.65;20.23;;;;;;;;;;4801671;29;20055;-80
2023/04/09 03:54:50;;;;;;;33.05;19.77;;;;;;;;;;4802030;29;20050;-80
2023/04/09 03:57:40;;;;;;;34.22;20.60;;;;;;;;;;4801654;29;20058;-79
2023/04/09 04:00:31;;;;;;;39.92;23.83;;;;;;;;;;4797910;29;20059;-80
2023/04/09 04:03:33;;;;;;;33.13;19.70;;;;;;;;;;4801505;29;20059;-79
2023/04/09 04:06:36;;;;;;;34.25;20.83;;;;;;;;;;4797356;29;20051;-79
2023/04/09 04:09:40;;;;;;;36.92;22.63;;;;;;;;;;4811866;29;20055;-79
2023/04/09 04:12:31;;;;;;;31.00;20.13;;;;;;;;;;4801042;29;20416;-79
2023/04/09 04:15:24;;;;;;;33.58;19.75;;;;;;;;;;4801619;29;20054;-79
2023/04/09 04:18:13;;;;;;;30.27;18.90;;;;;;;;;;4813028;29;20481;-79
2023/04/09 04:21:03;;;;;;;38.13;20.52;;;;;;;;;;4825480;29;20066;-80
2023/04/09 04:23:51;;;;;;;41.33;21.63;;;;;;;;;;4812341;29;20051;-79
2023/04/09 04:26:40;;;;;;;38.42;20.77;;;;;;;;;;4806646;29;20081;-80
2023/04/09 04:29:26;;;;;;;38.80;20.80;;;;;;;;;;4818469;29;20441;-80
2023/04/09 04:32:17;;;;;;;39.83;20.63;;;;;;;;;;4818809;29;20051;-80
2023/04/09 04:35:02;;;;;;;33.22;20.60;;;;;;;;;;4813029;29;20054;-80
2023/04/09 04:37:51;;;;;;;34.75;20.50;;;;;;;;;;4818693;29;20050;-80
2023/04/09 04:40:36;;;;;;;37.00;20.88;;;;;;;;;;4819485;29;20051;-80
2023/04/09 04:43:22;;;;;;;37.92;21.92;;;;;;;;;;4818946;29;20054;-80
2023/04/09 04:46:09;;;;;;;34.33;22.63;;;;;;;;;;4818733;29;20058;-80
2023/04/09 04:48:54;;;;;;;40.85;22.95;;;;;;;;;;4826045;29;20050;-79
2023/04/09 04:51:41;;;;;;;34.65;21.27;;;;;;;;;;4818437;29;20054;-79
2023/04/09 04:54:30;;;;;;;38.13;22.75;;;;;;;;;;4806819;29;20062;-79
2023/04/09 04:57:17;;;;;;;35.13;20.95;;;;;;;;;;4826426;29;20055;-80
2023/04/09 05:00:04;;;;;;;37.75;24.73;;;;;;;;;;4818490;29;20058;-79
2023/04/09 05:02:49;;;;;;;50.30;30.23;;;;;;;;;;4826012;29;20223;-80
2023/04/09 05:05:54;;;;;;;46.90;27.58;;;;;;;;;;4818762;29;20047;-80
2023/04/09 05:08:41;;;;;;;52.05;28.90;;;;;;;;;;4813125;29;20409;-80
2023/04/09 05:11:27;;;;;;;45.03;26.23;;;;;;;;;;4800230;29;20051;-80
2023/04/09 05:14:12;;;;;;;65.47;35.80;;;;;;;;;;4800349;29;20426;-81
2023/04/09 05:16:58;;;;;;;64.63;37.40;;;;;;;;;;4800207;29;20050;-79
2023/04/09 05:19:52;;;;;;;56.92;34.33;;;;;;;;;;4813181;29;20055;-80
2023/04/09 05:22:42;;;;;;;53.13;30.77;;;;;;;;;;4798410;29;20062;-80
2023/04/09 05:25:29;;;;;;;50.83;29.48;;;;;;;;;;4785980;29;20408;-81
2023/04/09 05:28:15;;;;;;;50.30;30.45;;;;;;;;;;4788666;29;20054;-80
2023/04/09 05:31:02;;;;;;;44.13;26.38;;;;;;;;;;4794868;29;20485;-79
2023/04/09 05:33:49;;;;;;;42.55;26.02;;;;;;;;;;4797283;29;20063;-80
2023/04/09 05:36:41;;;;;;;45.33;25.85;;;;;;;;;;4818103;29;20046;-81
2023/04/09 05:39:27;;;;;;;44.10;26.23;;;;;;;;;;4817142;29;20051;-80
2023/04/09 05:42:12;;;;;;;63.40;38.97;;;;;;;;;;4814074;29;20058;-80
2023/04/09 05:45:09;;;;;;;65.63;37.83;;;;;;;;;;4781718;29;20055;-80
2023/04/09 05:47:56;;;;;;;61.03;35.72;;;;;;;;;;4781841;29;20052;-79
2023/04/09 05:50:48;;;;;;;61.95;35.65;;;;;;;;;;4809985;29;20047;-80
2023/04/09 05:53:33;;;;;;;65.93;35.65;;;;;;;;;;4807159;29;20050;-80
2023/04/09 05:56:21;;;;;;;66.72;36.17;;;;;;;;;;4799375;29;20054;-79
2023/04/09 05:59:11;;;;;;;57.58;34.85;;;;;;;;;;4798974;29;20054;-80
2023/04/09 06:01:57;;;;;;;69.78;38.53;;;;;;;;;;4799630;29;20071;-80
2023/04/09 06:04:41;;;;;;;65.13;38.58;;;;;;;;;;4806881;29;20408;-81
2023/04/09 06:07:28;;;;;;;72.45;38.58;;;;;;;;;;4799552;29;20046;-80
2023/04/09 06:10:14;;;;;;;68.65;36.97;;;;;;;;;;4811151;29;20090;-80
2023/04/09 06:13:00;;;;;;;77.00;41.13;;;;;;;;;;4806643;29;20500;-80
2023/04/09 06:15:45;;;;;;;62.35;37.58;;;;;;;;;;4812063;29;20403;-80
2023/04/09 06:18:31;;;;;;;56.53;34.10;;;;;;;;;;4799244;29;20054;-80
2023/04/09 06:21:16;;;;;;;86.03;44.60;;;;;;;;;;4807010;29;20516;-80
2023/04/09 06:24:01;;;;;;;57.38;32.33;;;;;;;;;;4806684;29;20051;-81
2023/04/09 06:26:46;;;;;;;41.75;26.65;;;;;;;;;;4806669;29;20055;-81
2023/04/09 06:29:31;;;;;;;40.38;25.88;;;;;;;;;;4806818;29;20051;-81
2023/04/09 06:32:17;;;;;;;47.00;27.02;;;;;;;;;;4807009;29;20050;-80
2023/04/09 06:35:03;;;;;;;48.65;28.83;;;;;;;;;;4806714;29;20388;-79
2023/04/09 06:37:48;;;;;;;64.38;37.30;;;;;;;;;;4806590;29;20043;-80
2023/04/09 06:40:33;;;;;;;39.28;24.38;;;;;;;;;;4786537;29;20059;-79
2023/04/09 06:43:18;;;;;;;32.50;19.60;;;;;;;;;;4800837;29;20054;-79
2023/04/09 06:46:09;;;;;;;41.70;23.08;;;;;;;;;;4781077;29;20059;-80
2023/04/09 06:48:54;;;;;;;53.70;28.55;;;;;;;;;;4806521;29;20054;-80
2023/04/09 06:51:40;;;;;;;43.05;25.73;;;;;;;;;;4806115;29;20409;-80
2023/04/09 06:54:26;;;;;;;40.80;25.52;;;;;;;;;;4806465;29;20050;-81
2023/04/09 06:57:11;;;;;;;51.17;29.08;;;;;;;;;;4806367;29;20051;-80
2023/04/09 06:59:55;;;;;;;51.33;28.50;;;;;;;;;;4802758;29;20054;-79
2023/04/09 07:02:40;;;;;;;43.45;23.55;;;;;;;;;;4787979;30;20055;-80
2023/04/09 07:05:26;;;;;;;41.85;22.05;;;;;;;;;;4788220;30;20043;-79
2023/04/09 07:08:11;;;;;;;47.63;26.33;;;;;;;;;;4788280;29;20389;-80
2023/04/09 07:10:57;;;;;;;43.45;25.58;;;;;;;;;;4805253;29;20043;-80
2023/04/09 07:13:43;;;;;;;48.33;29.48;;;;;;;;;;4820750;29;20051;-81
2023/04/09 07:16:28;;;;;;;35.15;22.95;;;;;;;;;;4814171;29;20051;-80
2023/04/09 07:19:14;;;;;;;34.92;23.05;;;;;;;;;;4806191;29;20046;-80
2023/04/09 07:21:59;;;;;;;39.80;24.85;;;;;;;;;;4807725;29;20059;-80
2023/04/09 07:24:45;;;;;;;38.28;24.38;;;;;;;;;;4823428;29;20413;-81
2023/04/09 07:27:30;;;;;;;39.33;25.50;;;;;;;;;;4790704;29;20063;-82
2023/04/09 07:30:17;;;;;;;1055.38;117.25;;;;;;;;;;4807518;29;20050;-79
2023/04/09 07:33:02;;;;;;;52.13;42.88;;;;;;;;;;4800968;29;20047;-82
2023/04/09 07:35:47;;;;;;;34.85;23.70;;;;;;;;;;4804946;29;20055;-82
2023/04/09 07:38:32;;;;;;;41.05;26.70;;;;;;;;;;4800034;29;20051;-83
2023/04/09 07:41:17;;;;;;;209.75;40.67;;;;;;;;;;4795239;29;20048;-82
2023/04/09 07:44:05;;;;;;;46.80;28.30;;;;;;;;;;4824115;29;20047;-81
2023/04/09 07:46:49;;;;;;;41.72;25.38;;;;;;;;;;4824052;29;20050;-82
2023/04/09 07:49:35;;;;;;;46.88;27.73;;;;;;;;;;4817979;29;20489;-81
2023/04/09 07:52:20;;;;;;;42.38;26.45;;;;;;;;;;4803528;29;20633;-81
2023/04/09 07:55:05;;;;;;;43.58;25.05;;;;;;;;;;4813900;29;20050;-82
2023/04/09 07:57:51;;;;;;;37.70;22.38;;;;;;;;;;4820793;29;20054;-80
2023/04/09 08:00:35;;;;;;;42.30;26.23;;;;;;;;;;4822606;29;20047;-80
2023/04/09 08:03:21;;;;;;;36.47;21.98;;;;;;;;;;4811452;29;20051;-81
2023/04/09 08:06:07;;;;;;;34.65;21.40;;;;;;;;;;4814091;29;20047;-80
2023/04/09 08:08:52;;;;;;;33.40;21.38;;;;;;;;;;4807591;29;20043;-80
2023/04/09 08:11:37;;;;;;;28.58;17.58;;;;;;;;;;4788476;29;20047;-80
2023/04/09 08:14:22;;;;;;;36.83;21.67;;;;;;;;;;4826614;29;20058;-80
2023/04/09 08:17:08;;;;;;;35.20;22.60;;;;;;;;;;4802548;29;20046;-80
2023/04/09 08:19:53;;;;;;;39.58;24.90;;;;;;;;;;4795045;29;20051;-79
2023/04/09 08:22:39;;;;;;;37.92;24.80;;;;;;;;;;4808610;29;20051;-79
2023/04/09 08:25:25;;;;;;;35.53;22.48;;;;;;;;;;4808533;29;20397;-80
2023/04/09 08:28:10;;;;;;;36.65;25.05;;;;;;;;;;4808649;29;20055;-80
2023/04/09 08:30:55;;;;;;;42.72;26.02;;;;;;;;;;4787749;29;20063;-82
2023/04/09 08:33:41;;;;;;;42.63;26.95;;;;;;;;;;4821197;29;20058;-81
2023/04/09 08:36:27;;;;;;;54.03;30.90;;;;;;;;;;4811747;29;20050;-80
2023/04/09 08:39:12;;;;;;;44.15;27.50;;;;;;;;;;4793096;29;20073;-81
2023/04/09 08:42:01;;;;;;;36.47;25.02;;;;;;;;;;4803240;29;20050;-80
2023/04/09 08:44:47;;;;;;;39.20;25.10;;;;;;;;;;4824101;29;20055;-80
2023/04/09 08:47:34;;;;;;;40.28;25.77;;;;;;;;;;4808542;29;20050;-80
2023/04/09 08:50:19;;;;;;;34.65;22.83;;;;;;;;;;4789670;30;20490;-80
2023/04/09 08:53:07;;;;;;;46.28;27.85;;;;;;;;;;4789786;30;20043;-79
2023/04/09 08:55:52;;;;;;;48.05;26.00;;;;;;;;;;4790022;30;20055;-81
2023/04/09 08:58:42;;;;;;;43.65;28.02;;;;;;;;;;4807887;29;20402;-80
2023/04/09 09:01:29;;;;;;;41.15;28.73;;;;;;;;;;4789966;30;20063;-81
2023/04/09 09:04:14;;;;;;;39.72;25.88;;;;;;;;;;4788427;30;20056;-81
2023/04/09 09:07:05;;;;;;;37.70;25.25;;;;;;;;;;4789784;30;20051;-81
2023/04/09 09:09:58;;;;;;;41.97;25.50;;;;;;;;;;4790274;30;20059;-82
2023/04/09 09:12:44;;;;;;;40.38;28.15;;;;;;;;;;4788950;29;20405;-80
2023/04/09 09:15:29;;;;;;;40.25;25.40;;;;;;;;;;4801409;29;20051;-81
2023/04/09 09:18:17;;;;;;;35.47;24.15;;;;;;;;;;4789575;30;20047;-81
2023/04/09 09:21:13;;;;;;;40.67;26.88;;;;;;;;;;4789794;30;20059;-81
2023/04/09 09:23:58;;;;;;;46.65;26.55;;;;;;;;;;4788834;30;20059;-81
2023/04/09 09:26:43;;;;;;;38.03;25.80;;;;;;;;;;4789661;30;20051;-80
2023/04/09 09:29:28;;;;;;;37.60;24.08;;;;;;;;;;4789443;30;20067;-82
2023/04/09 09:32:14;;;;;;;39.22;25.30;;;;;;;;;;4789519;30;20051;-82
2023/04/09 09:35:04;;;;;;;37.47;24.08;;;;;;;;;;4789463;30;20059;-80
2023/04/09 09:38:01;;;;;;;34.97;24.50;;;;;;;;;;4789715;30;20482;-81
2023/04/09 09:40:46;;;;;;;42.35;26.38;;;;;;;;;;4789550;30;20047;-83
2023/04/09 09:43:41;;;;;;;120.28;47.22;;;;;;;;;;4789554;30;20063;-80
2023/04/09 09:46:30;;;;;;;52.92;29.27;;;;;;;;;;4789210;30;20382;-81
2023/04/09 09:49:15;;;;;;;37.50;21.05;;;;;;;;;;4794171;29;20067;-80
2023/04/09 09:52:04;;;;;;;45.67;26.38;;;;;;;;;;4794314;29;20052;-80
2023/04/09 09:54:51;;;;;;;60.28;29.98;;;;;;;;;;4789170;30;20059;-81
2023/04/09 09:57:39;;;;;;;43.45;27.42;;;;;;;;;;4788532;30;20047;-81
2023/04/09 10:00:27;;;;;;;47.95;27.08;;;;;;;;;;4793557;29;20055;-80
2023/04/09 10:03:20;;;;;;;49.08;28.02;;;;;;;;;;4789083;30;20509;-80
2023/04/09 10:06:08;;;;;;;40.15;24.92;;;;;;;;;;4789201;30;20481;-81
2023/04/09 10:08:59;;;;;;;46.53;28.60;;;;;;;;;;4788978;30;20055;-81
2023/04/09 10:11:47;;;;;;;46.97;29.55;;;;;;;;;;4805683;29;20055;-82
2023/04/09 10:14:34;;;;;;;54.42;31.45;;;;;;;;;;4788219;30;20047;-82
2023/04/09 10:17:20;;;;;;;47.08;29.88;;;;;;;;;;4792568;30;20055;-80
2023/04/09 10:20:12;;;;;;;59.40;34.25;;;;;;;;;;4792513;30;20055;-81
2023/04/09 10:23:02;;;;;;;48.25;30.90;;;;;;;;;;4790367;29;20059;-82
2023/04/09 10:25:47;;;;;;;51.45;30.90;;;;;;;;;;4789943;30;20055;-80
2023/04/09 10:28:32;;;;;;;74.28;41.55;;;;;;;;;;4790269;30;20481;-80
2023/04/09 10:31:19;;;;;;;43.65;27.05;;;;;;;;;;4801976;29;20063;-80
2023/04/09 10:34:04;;;;;;;50.05;29.73;;;;;;;;;;4788873;30;20043;-81
2023/04/09 10:36:57;;;;;;;51.53;32.47;;;;;;;;;;4788965;30;20071;-81
2023/04/09 10:39:45;;;;;;;42.20;27.48;;;;;;;;;;4793402;29;20055;-84
2023/04/09 10:42:39;;;;;;;46.95;29.33;;;;;;;;;;4788064;30;20051;-82
2023/04/09 10:45:39;;;;;;;47.30;29.58;;;;;;;;;;4788669;30;20055;-83
2023/04/09 10:48:25;;;;;;;54.28;30.63;;;;;;;;;;4788146;30;20493;-81
2023/04/09 10:51:18;;;;;;;42.95;26.85;;;;;;;;;;4788565;30;20043;-81
2023/04/09 10:54:05;;;;;;;55.65;43.05;;;;;;;;;;4788671;30;20043;-82
2023/04/09 10:57:10;;;;;;;31.92;22.92;;;;;;;;;;4788333;30;20059;-81
2023/04/09 10:59:54;;;;;;;37.63;23.73;;;;;;;;;;4787193;30;20043;-79
2023/04/09 11:02:39;;;;;;;39.63;24.77;;;;;;;;;;4788420;30;20055;-80
2023/04/09 11:05:31;;;;;;;26.27;16.27;;;;;;;;;;4788438;30;20051;-80
2023/04/09 11:08:17;;;;;;;30.55;20.80;;;;;;;;;;4788277;30;20051;-81
2023/04/09 11:11:02;;;;;;;36.95;24.17;;;;;;;;;;4787895;30;20047;-81
2023/04/09 11:13:47;;;;;;;36.90;25.50;;;;;;;;;;4788029;30;20490;-82
2023/04/09 11:16:33;;;;;;;35.78;23.65;;;;;;;;;;4788560;30;20442;-82
2023/04/09 11:19:22;;;;;;;40.83;25.05;;;;;;;;;;4788566;30;20055;-81
2023/04/09 11:22:07;;;;;;;37.03;24.95;;;;;;;;;;4788507;30;20497;-81
2023/04/09 11:24:53;;;;;;;40.33;23.05;;;;;;;;;;4787925;30;20051;-81
2023/04/09 11:27:43;;;;;;;32.08;23.23;;;;;;;;;;4788129;30;20059;-83
2023/04/09 11:30:30;;;;;;;35.25;23.90;;;;;;;;;;4788115;30;20055;-82
2023/04/09 11:33:14;;;;;;;37.58;24.83;;;;;;;;;;4788080;30;20490;-81
2023/04/09 11:36:00;;;;;;;36.60;23.02;;;;;;;;;;4789474;30;20055;-81
2023/04/09 11:38:48;;;;;;;33.65;22.40;;;;;;;;;;4791277;30;20051;-82
2023/04/09 11:41:35;;;;;;;35.03;23.75;;;;;;;;;;4796161;29;20055;-81
2023/04/09 11:44:20;;;;;;;39.83;24.58;;;;;;;;;;4797945;29;20408;-81
2023/04/09 11:47:09;;;;;;;30.67;20.73;;;;;;;;;;4793021;29;20059;-80
2023/04/09 11:49:54;;;;;;;32.58;22.27;;;;;;;;;;4791021;30;20044;-80
2023/04/09 11:52:40;;;;;;;35.00;23.70;;;;;;;;;;4791140;29;20043;-80
2023/04/09 11:55:28;;;;;;;33.28;21.73;;;;;;;;;;4777623;30;20043;-81
2023/04/09 11:58:13;;;;;;;31.40;21.42;;;;;;;;;;4793161;29;20047;-81
2023/04/09 12:00:59;;;;;;;29.45;20.45;;;;;;;;;;4799456;29;20047;-81
2023/04/09 12:03:52;;;;;;;32.30;20.27;;;;;;;;;;4792011;29;20055;-79
2023/04/09 12:06:39;;;;;;;63.30;29.38;;;;;;;;;;4790900;30;20051;-82
2023/04/09 12:09:24;;;;;;;36.08;22.20;;;;;;;;;;4791033;30;20051;-80
2023/04/09 12:12:10;;;;;;;30.98;21.88;;;;;;;;;;4806972;29;20488;-82
2023/04/09 12:14:57;;;;;;;32.15;23.10;;;;;;;;;;4826198;29;20046;-82
2023/04/09 12:17:46;;;;;;;29.15;19.67;;;;;;;;;;4808785;29;20055;-81
2023/04/09 12:20:33;;;;;;;27.05;19.00;;;;;;;;;;4808587;29;20485;-81
2023/04/09 12:23:19;;;;;;;35.90;24.02;;;;;;;;;;4798923;29;20063;-80
2023/04/09 12:26:04;;;;;;;38.10;24.17;;;;;;;;;;4808950;29;20050;-81
2023/04/09 12:28:50;;;;;;;30.67;19.42;;;;;;;;;;4808860;29;20486;-80
2023/04/09 12:31:35;;;;;;;26.30;19.05;;;;;;;;;;4808579;29;20055;-81
2023/04/09 12:34:20;;;;;;;26.20;19.58;;;;;;;;;;4808444;29;20389;-81
2023/04/09 12:37:06;;;;;;;24.30;14.80;;;;;;;;;;4807250;29;20055;-81
2023/04/09 12:39:51;;;;;;;26.55;19.27;;;;;;;;;;4808269;29;20493;-81
2023/04/09 12:42:36;;;;;;;42.75;24.65;;;;;;;;;;4808587;29;20050;-81
2023/04/09 12:45:22;;;;;;;26.70;19.17;;;;;;;;;;4807465;29;20058;-82
2023/04/09 12:48:07;;;;;;;27.83;19.10;;;;;;;;;;4811760;29;20042;-82
2023/04/09 12:50:52;;;;;;;32.80;19.85;;;;;;;;;;4804081;29;20046;-82
2023/04/09 12:53:38;;;;;;;29.55;20.33;;;;;;;;;;4791648;29;20043;-82
2023/04/09 12:56:23;;;;;;;32.63;19.98;;;;;;;;;;4790143;30;20055;-81
2023/04/09 12:59:08;;;;;;;73.95;29.70;;;;;;;;;;4789680;30;20047;-82
2023/04/09 13:01:53;;;;;;;27.30;20.00;;;;;;;;;;4791994;29;20052;-82
2023/04/09 13:04:38;;;;;;;27.10;19.55;;;;;;;;;;4799328;29;20066;-82
2023/04/09 13:07:25;;;;;;;26.88;18.90;;;;;;;;;;4801792;29;20494;-81
2023/04/09 13:10:10;;;;;;;26.88;20.08;;;;;;;;;;4797810;29;20063;-83
2023/04/09 13:12:56;;;;;;;28.58;19.58;;;;;;;;;;4789604;30;20051;-81
2023/04/09 13:15:45;;;;;;;30.80;21.15;;;;;;;;;;4816348;29;20058;-81
2023/04/09 13:18:30;;;;;;;26.38;18.10;;;;;;;;;;4824740;29;20062;-82
2023/04/09 13:21:17;;;;;;;26.73;18.80;;;;;;;;;;4814536;29;20412;-79
2023/04/09 13:24:03;;;;;;;30.75;20.42;;;;;;;;;;4817055;29;20058;-81
2023/04/09 13:26:48;;;;;;;26.85;18.50;;;;;;;;;;4824414;29;20054;-81
2023/04/09 13:29:34;;;;;;;33.75;20.25;;;;;;;;;;4825451;29;20493;-81
2023/04/09 13:32:22;;;;;;;27.52;17.85;;;;;;;;;;4825753;29;20076;-82
2023/04/09 13:35:09;;;;;;;35.97;20.92;;;;;;;;;;4825428;29;20046;-82
2023/04/09 13:37:54;;;;;;;24.75;17.67;;;;;;;;;;4796087;29;20134;-81
2023/04/09 13:40:43;;;;;;;25.33;17.35;;;;;;;;;;4796125;29;20051;-83
2023/04/09 13:43:28;;;;;;;38.88;21.90;;;;;;;;;;4801230;29;20489;-82
2023/04/09 13:46:14;;;;;;;24.23;17.15;;;;;;;;;;4801971;29;20055;-81
2023/04/09 13:48:59;;;;;;;26.40;16.63;;;;;;;;;;4801543;29;20039;-80
2023/04/09 13:51:45;;;;;;;56.38;23.58;;;;;;;;;;4797976;29;20059;-79
2023/04/09 13:54:34;;;;;;;22.80;12.13;;;;;;;;;;4799414;29;20047;-81
2023/04/09 13:57:19;;;;;;;42.08;22.92;;;;;;;;;;4802320;29;20047;-81
2023/04/09 14:00:06;;;;;;;33.95;19.98;;;;;;;;;;4788049;29;20054;-82
2023/04/09 14:02:51;;;;;;;38.00;24.60;;;;;;;;;;4802604;29;20051;-81
2023/04/09 14:05:36;;;;;;;36.47;23.27;;;;;;;;;;4800866;29;20047;-81
2023/04/09 14:08:22;;;;;;;26.92;15.38;;;;;;;;;;4801725;29;20050;-81
2023/04/09 14:11:09;;;;;;;47.10;24.55;;;;;;;;;;4813904;29;20067;-82
2023/04/09 14:13:56;;;;;;;56.50;29.88;;;;;;;;;;4804926;29;20039;-82
2023/04/09 14:16:41;;;;;;;38.65;22.85;;;;;;;;;;4800571;29;20039;-82
2023/04/09 14:19:26;;;;;;;38.45;23.58;;;;;;;;;;4799855;29;20059;-81
2023/04/09 14:22:11;;;;;;;33.33;20.23;;;;;;;;;;4792733;29;20055;-81
2023/04/09 14:24:58;;;;;;;399.08;156.63;;;;;;;;;;4800003;29;20055;-82
2023/04/09 14:27:43;;;;;;;73.68;34.58;;;;;;;;;;4800002;29;20042;-82
2023/04/09 14:30:29;;;;;;;27.05;16.95;;;;;;;;;;4783811;29;20478;-81
2023/04/09 14:33:14;;;;;;;343.23;95.50;;;;;;;;;;4788054;30;20051;-83
2023/04/09 14:36:00;;;;;;;76.90;37.33;;;;;;;;;;4788477;30;20493;-83
2023/04/09 14:38:47;;;;;;;55.50;32.45;;;;;;;;;;4788557;30;20051;-81
2023/04/09 14:41:33;;;;;;;55.10;32.55;;;;;;;;;;4788291;30;20063;-83
2023/04/09 14:44:17;;;;;;;54.10;31.70;;;;;;;;;;4780716;29;20487;-81
2023/04/09 14:47:03;;;;;;;63.40;36.30;;;;;;;;;;4796371;29;20051;-83
2023/04/09 14:49:48;;;;;;;52.38;31.92;;;;;;;;;;4803015;29;20050;-82
2023/04/09 14:52:33;;;;;;;72.75;43.25;;;;;;;;;;4803628;29;20051;-83
2023/04/09 14:55:19;;;;;;;51.05;34.17;;;;;;;;;;4792572;29;20051;-83
2023/04/09 14:58:06;;;;;;;49.60;34.47;;;;;;;;;;4799563;29;20401;-83
2023/04/09 15:00:52;;;;;;;59.20;36.42;;;;;;;;;;4793575;29;20047;-83
2023/04/09 15:03:37;;;;;;;64.15;39.90;;;;;;;;;;4812762;29;20050;-83
2023/04/09 15:06:23;;;;;;;75.63;46.72;;;;;;;;;;4806560;29;20059;-83
2023/04/09 15:09:08;;;;;;;61.08;38.20;;;;;;;;;;4810363;29;20404;-82
2023/04/09 15:11:57;;;;;;;81.95;45.70;;;;;;;;;;4804048;29;20035;-83
2023/04/09 15:14:47;;;;;;;67.07;40.42;;;;;;;;;;4802404;29;20047;-83
2023/04/09 15:17:32;;;;;;;67.72;43.53;;;;;;;;;;4803395;29;20043;-82
2023/04/09 15:20:18;;;;;;;58.45;37.50;;;;;;;;;;4803373;29;20054;-82
2023/04/09 15:23:04;;;;;;;52.33;35.63;;;;;;;;;;4825007;29;20057;-82
2023/04/09 15:25:49;;;;;;;53.47;33.03;;;;;;;;;;4825117;29;20054;-83
2023/04/09 15:28:34;;;;;;;52.40;34.05;;;;;;;;;;4794114;29;20054;-84
2023/04/09 15:31:20;;;;;;;52.83;34.45;;;;;;;;;;4810254;29;20059;-83
2023/04/09 15:34:05;;;;;;;60.60;36.22;;;;;;;;;;4809654;29;20050;-84
2023/04/09 15:36:51;;;;;;;57.72;37.33;;;;;;;;;;4809256;29;20417;-84
2023/04/09 15:39:37;;;;;;;60.70;36.28;;;;;;;;;;4809464;29;20043;-82
2023/04/09 15:42:22;;;;;;;78.20;48.13;;;;;;;;;;4816507;29;20054;-84
2023/04/09 15:45:08;;;;;;;61.47;39.13;;;;;;;;;;4809267;29;20051;-84
2023/04/09 15:47:53;;;;;;;50.38;35.85;;;;;;;;;;4809188;29;20054;-84
2023/04/09 15:50:38;;;;;;;70.68;44.45;;;;;;;;;;4809097;29;20043;-82
2023/04/09 15:53:27;;;;;;;66.57;41.15;;;;;;;;;;4811872;29;20046;-81
2023/04/09 15:56:15;;;;;;;69.97;43.70;;;;;;;;;;4798073;29;20055;-83
2023/04/09 15:59:00;;;;;;;115.95;62.90;;;;;;;;;;4812290;29;20042;-82
2023/04/09 16:01:47;;;;;;;159.63;85.07;;;;;;;;;;4833204;29;20054;-83
2023/04/09 16:04:32;;;;;;;93.97;48.20;;;;;;;;;;4826746;29;20054;-83
2023/04/09 16:07:18;;;;;;;85.72;47.42;;;;;;;;;;4827071;29;20054;-82
2023/04/09 16:10:03;;;;;;;79.35;44.35;;;;;;;;;;4827009;29;20062;-81